sensor_id;sensor_type;location;lat;lon;timestamp;P1;durP1;ratioP1;P2;durP2;ratioP2
20363;SDS011;10340;53.664;9.908;2022-11-20T00:00:38;4.07;;;3.70;;
20363;SDS011;10340;53.664;9.908;2022-11-20T00:03:07;4.33;;;3.93;;
20363;SDS011;10340;53.664;9.908;2022-11-20T00:05:34;5.63;;;4.00;;
20363;SDS011;10340;53.664;9.908;2022-11-20T00:08:01;5.70;;;4.23;;
20363;SDS011;10340;53.664;9.908;2022-11-20T00:10:28;4.30;;;3.90;;
20363;SDS011;10340;53.664;9.908;2022-11-20T00:12:55;4.87;;;4.43;;
20363;SDS011;10340;53.664;9.908;2022-11-20T00:15:23;4.10;;;3.70;;
20363;SDS011;10340;53.664;9.908;2022-11-20T00:17:50;3.93;;;3.60;;
20363;SDS011;10340;53.664;9.908;2022-11-20T00:20:19;4.87;;;4.13;;
20363;SDS011;10340;53.664;9.908;2022-11-20T00:22:46;3.97;;;3.60;;
20363;SDS011;10340;53.664;9.908;2022-11-20T00:25:13;4.67;;;3.97;;
20363;SDS011;10340;53.664;9.908;2022-11-20T00:27:40;4.47;;;3.90;;
20363;SDS011;10340;53.664;9.908;2022-11-20T00:30:07;4.30;;;3.83;;
20363;SDS011;10340;53.664;9.908;2022-11-20T00:32:35;6.67;;;4.43;;
20363;SDS011;10340;53.664;9.908;2022-11-20T00:35:02;5.60;;;3.70;;
20363;SDS011;10340;53.664;9.908;2022-11-20T00:37:30;5.03;;;3.67;;
20363;SDS011;10340;53.664;9.908;2022-11-20T00:39:57;4.57;;;4.13;;
20363;SDS011;10340;53.664;9.908;2022-11-20T00:42:24;5.93;;;4.23;;
20363;SDS011;10340;53.664;9.908;2022-11-20T00:44:51;4.77;;;3.87;;
20363;SDS011;10340;53.664;9.908;2022-11-20T00:47:19;3.83;;;3.50;;
20363;SDS011;10340;53.664;9.908;2022-11-20T00:49:46;3.57;;;3.27;;
20363;SDS011;10340;53.664;9.908;2022-11-20T00:52:12;4.47;;;3.70;;
20363;SDS011;10340;53.664;9.908;2022-11-20T00:54:41;3.70;;;3.40;;
20363;SDS011;10340;53.664;9.908;2022-11-20T00:57:08;4.40;;;4.00;;
20363;SDS011;10340;53.664;9.908;2022-11-20T00:59:35;4.73;;;4.03;;
20363;SDS011;10340;53.664;9.908;2022-11-20T01:02:02;4.33;;;3.70;;
20363;SDS011;10340;53.664;9.908;2022-11-20T01:04:29;5.50;;;4.00;;
20363;SDS011;10340;53.664;9.908;2022-11-20T01:06:56;3.90;;;3.57;;
20363;SDS011;10340;53.664;9.908;2022-11-20T01:09:23;4.83;;;3.90;;
20363;SDS011;10340;53.664;9.908;2022-11-20T01:11:51;6.53;;;4.37;;
20363;SDS011;10340;53.664;9.908;2022-11-20T01:14:18;4.40;;;4.00;;
20363;SDS011;10340;53.664;9.908;2022-11-20T01:16:46;4.80;;;4.30;;
20363;SDS011;10340;53.664;9.908;2022-11-20T01:19:16;4.57;;;4.13;;
20363;SDS011;10340;53.664;9.908;2022-11-20T01:21:48;3.93;;;3.57;;
20363;SDS011;10340;53.664;9.908;2022-11-20T01:24:17;4.50;;;4.03;;
20363;SDS011;10340;53.664;9.908;2022-11-20T01:26:46;4.30;;;3.90;;
20363;SDS011;10340;53.664;9.908;2022-11-20T01:29:17;4.33;;;3.93;;
20363;SDS011;10340;53.664;9.908;2022-11-20T01:31:46;4.23;;;3.77;;
20363;SDS011;10340;53.664;9.908;2022-11-20T01:34:13;5.13;;;4.30;;
20363;SDS011;10340;53.664;9.908;2022-11-20T01:36:43;3.90;;;3.60;;
20363;SDS011;10340;53.664;9.908;2022-11-20T01:39:11;4.70;;;3.93;;
20363;SDS011;10340;53.664;9.908;2022-11-20T01:41:40;4.30;;;3.90;;
20363;SDS011;10340;53.664;9.908;2022-11-20T01:47:16;4.07;;;3.67;;
20363;SDS011;10340;53.664;9.908;2022-11-20T01:49:46;4.33;;;3.87;;
20363;SDS011;10340;53.664;9.908;2022-11-20T01:52:17;5.53;;;3.87;;
20363;SDS011;10340;53.664;9.908;2022-11-20T01:54:46;5.30;;;4.17;;
20363;SDS011;10340;53.664;9.908;2022-11-20T01:57:16;4.10;;;3.70;;
20363;SDS011;10340;53.664;9.908;2022-11-20T01:59:45;6.33;;;3.83;;
20363;SDS011;10340;53.664;9.908;2022-11-20T02:02:20;4.03;;;3.60;;
20363;SDS011;10340;53.664;9.908;2022-11-20T02:04:47;5.97;;;4.27;;
20363;SDS011;10340;53.664;9.908;2022-11-20T02:07:17;4.30;;;3.90;;
20363;SDS011;10340;53.664;9.908;2022-11-20T02:09:46;4.77;;;4.03;;
20363;SDS011;10340;53.664;9.908;2022-11-20T02:12:13;4.03;;;3.50;;
20363;SDS011;10340;53.664;9.908;2022-11-20T02:14:56;3.93;;;3.53;;
20363;SDS011;10340;53.664;9.908;2022-11-20T02:17:23;3.90;;;3.33;;
20363;SDS011;10340;53.664;9.908;2022-11-20T02:19:50;4.57;;;4.00;;
20363;SDS011;10340;53.664;9.908;2022-11-20T02:22:18;4.17;;;3.63;;
20363;SDS011;10340;53.664;9.908;2022-11-20T02:24:51;4.23;;;3.87;;
20363;SDS011;10340;53.664;9.908;2022-11-20T02:27:18;4.50;;;3.63;;
20363;SDS011;10340;53.664;9.908;2022-11-20T02:29:47;5.97;;;3.40;;
20363;SDS011;10340;53.664;9.908;2022-11-20T02:32:18;4.40;;;3.87;;
20363;SDS011;10340;53.664;9.908;2022-11-20T02:34:45;4.60;;;3.70;;
20363;SDS011;10340;53.664;9.908;2022-11-20T02:37:12;4.10;;;3.70;;
20363;SDS011;10340;53.664;9.908;2022-11-20T02:39:40;5.20;;;3.90;;
20363;SDS011;10340;53.664;9.908;2022-11-20T02:42:10;3.90;;;3.50;;
20363;SDS011;10340;53.664;9.908;2022-11-20T02:44:37;4.80;;;3.90;;
20363;SDS011;10340;53.664;9.908;2022-11-20T02:47:04;3.80;;;3.50;;
20363;SDS011;10340;53.664;9.908;2022-11-20T02:49:31;4.80;;;3.57;;
20363;SDS011;10340;53.664;9.908;2022-11-20T02:51:58;4.50;;;4.10;;
20363;SDS011;10340;53.664;9.908;2022-11-20T02:54:25;4.07;;;3.67;;
20363;SDS011;10340;53.664;9.908;2022-11-20T02:56:52;5.40;;;3.70;;
20363;SDS011;10340;53.664;9.908;2022-11-20T02:59:21;4.30;;;3.83;;
20363;SDS011;10340;53.664;9.908;2022-11-20T03:01:48;4.67;;;3.70;;
20363;SDS011;10340;53.664;9.908;2022-11-20T03:04:15;4.00;;;3.60;;
20363;SDS011;10340;53.664;9.908;2022-11-20T03:06:42;5.20;;;4.07;;
20363;SDS011;10340;53.664;9.908;2022-11-20T03:09:09;4.33;;;3.43;;
20363;SDS011;10340;53.664;9.908;2022-11-20T03:11:38;4.80;;;3.90;;
20363;SDS011;10340;53.664;9.908;2022-11-20T03:14:05;4.50;;;4.03;;
20363;SDS011;10340;53.664;9.908;2022-11-20T03:16:33;4.20;;;3.80;;
20363;SDS011;10340;53.664;9.908;2022-11-20T03:19:00;6.83;;;3.77;;
20363;SDS011;10340;53.664;9.908;2022-11-20T03:21:27;5.87;;;4.50;;
20363;SDS011;10340;53.664;9.908;2022-11-20T03:23:54;4.50;;;3.67;;
20363;SDS011;10340;53.664;9.908;2022-11-20T03:26:22;4.07;;;3.67;;
20363;SDS011;10340;53.664;9.908;2022-11-20T03:28:51;8.07;;;4.23;;
20363;SDS011;10340;53.664;9.908;2022-11-20T03:31:20;4.33;;;3.67;;
20363;SDS011;10340;53.664;9.908;2022-11-20T03:33:50;4.33;;;3.93;;
20363;SDS011;10340;53.664;9.908;2022-11-20T03:36:18;4.00;;;3.60;;
20363;SDS011;10340;53.664;9.908;2022-11-20T03:38:45;6.47;;;4.13;;
20363;SDS011;10340;53.664;9.908;2022-11-20T03:41:13;4.93;;;3.87;;
20363;SDS011;10340;53.664;9.908;2022-11-20T03:43:41;5.43;;;3.57;;
20363;SDS011;10340;53.664;9.908;2022-11-20T03:46:08;3.90;;;3.50;;
20363;SDS011;10340;53.664;9.908;2022-11-20T03:48:35;4.10;;;3.70;;
20363;SDS011;10340;53.664;9.908;2022-11-20T03:51:10;5.67;;;4.53;;
20363;SDS011;10340;53.664;9.908;2022-11-20T03:53:39;4.00;;;3.60;;
20363;SDS011;10340;53.664;9.908;2022-11-20T03:56:07;4.77;;;3.97;;
20363;SDS011;10340;53.664;9.908;2022-11-20T03:58:35;5.67;;;3.87;;
20363;SDS011;10340;53.664;9.908;2022-11-20T04:01:05;4.40;;;4.00;;
20363;SDS011;10340;53.664;9.908;2022-11-20T04:03:33;3.87;;;3.47;;
20363;SDS011;10340;53.664;9.908;2022-11-20T04:06:01;4.80;;;4.07;;
20363;SDS011;10340;53.664;9.908;2022-11-20T04:08:31;4.80;;;4.27;;
20363;SDS011;10340;53.664;9.908;2022-11-20T04:11:07;4.90;;;3.87;;
20363;SDS011;10340;53.664;9.908;2022-11-20T04:13:36;6.80;;;3.60;;
20363;SDS011;10340;53.664;9.908;2022-11-20T04:16:03;8.70;;;3.90;;
20363;SDS011;10340;53.664;9.908;2022-11-20T04:18:30;4.03;;;3.57;;
20363;SDS011;10340;53.664;9.908;2022-11-20T04:20:57;4.33;;;3.77;;
20363;SDS011;10340;53.664;9.908;2022-11-20T04:23:24;3.73;;;3.37;;
20363;SDS011;10340;53.664;9.908;2022-11-20T04:25:53;4.33;;;3.87;;
20363;SDS011;10340;53.664;9.908;2022-11-20T04:28:20;3.47;;;3.17;;
20363;SDS011;10340;53.664;9.908;2022-11-20T04:30:47;5.37;;;3.87;;
20363;SDS011;10340;53.664;9.908;2022-11-20T04:33:14;5.63;;;3.33;;
20363;SDS011;10340;53.664;9.908;2022-11-20T04:35:41;4.30;;;3.90;;
20363;SDS011;10340;53.664;9.908;2022-11-20T04:38:08;4.37;;;3.77;;
20363;SDS011;10340;53.664;9.908;2022-11-20T04:40:35;5.37;;;4.20;;
20363;SDS011;10340;53.664;9.908;2022-11-20T04:43:03;4.00;;;3.60;;
20363;SDS011;10340;53.664;9.908;2022-11-20T04:45:30;4.60;;;3.70;;
20363;SDS011;10340;53.664;9.908;2022-11-20T04:47:57;4.10;;;3.70;;
20363;SDS011;10340;53.664;9.908;2022-11-20T04:50:24;3.50;;;3.20;;
20363;SDS011;10340;53.664;9.908;2022-11-20T04:52:51;5.80;;;3.47;;
20363;SDS011;10340;53.664;9.908;2022-11-20T04:55:18;3.80;;;3.50;;
20363;SDS011;10340;53.664;9.908;2022-11-20T04:57:45;5.00;;;3.70;;
20363;SDS011;10340;53.664;9.908;2022-11-20T05:00:17;3.63;;;3.33;;
20363;SDS011;10340;53.664;9.908;2022-11-20T05:02:44;3.53;;;2.90;;
20363;SDS011;10340;53.664;9.908;2022-11-20T05:05:11;4.70;;;4.07;;
20363;SDS011;10340;53.664;9.908;2022-11-20T05:07:38;3.53;;;3.07;;
20363;SDS011;10340;53.664;9.908;2022-11-20T05:10:05;4.93;;;3.43;;
20363;SDS011;10340;53.664;9.908;2022-11-20T05:12:33;4.30;;;3.47;;
20363;SDS011;10340;53.664;9.908;2022-11-20T05:15:00;3.93;;;3.43;;
20363;SDS011;10340;53.664;9.908;2022-11-20T05:17:29;4.03;;;3.47;;
20363;SDS011;10340;53.664;9.908;2022-11-20T05:19:56;4.40;;;3.97;;
20363;SDS011;10340;53.664;9.908;2022-11-20T05:22:23;3.40;;;3.10;;
20363;SDS011;10340;53.664;9.908;2022-11-20T05:24:50;4.37;;;3.30;;
20363;SDS011;10340;53.664;9.908;2022-11-20T05:27:17;3.97;;;3.57;;
20363;SDS011;10340;53.664;9.908;2022-11-20T05:29:44;3.77;;;3.43;;
20363;SDS011;10340;53.664;9.908;2022-11-20T05:32:11;4.20;;;3.20;;
20363;SDS011;10340;53.664;9.908;2022-11-20T05:34:39;3.57;;;3.20;;
20363;SDS011;10340;53.664;9.908;2022-11-20T05:37:06;4.43;;;3.50;;
20363;SDS011;10340;53.664;9.908;2022-11-20T05:39:33;5.60;;;3.70;;
20363;SDS011;10340;53.664;9.908;2022-11-20T05:42:00;3.57;;;3.27;;
20363;SDS011;10340;53.664;9.908;2022-11-20T05:44:44;3.77;;;3.37;;
20363;SDS011;10340;53.664;9.908;2022-11-20T05:47:11;3.87;;;3.50;;
20363;SDS011;10340;53.664;9.908;2022-11-20T05:49:40;5.40;;;3.73;;
20363;SDS011;10340;53.664;9.908;2022-11-20T05:52:07;4.30;;;3.47;;
20363;SDS011;10340;53.664;9.908;2022-11-20T05:54:34;5.30;;;3.70;;
20363;SDS011;10340;53.664;9.908;2022-11-20T05:57:01;4.20;;;3.80;;
20363;SDS011;10340;53.664;9.908;2022-11-20T05:59:27;4.03;;;3.67;;
20363;SDS011;10340;53.664;9.908;2022-11-20T06:01:55;3.97;;;3.63;;
20363;SDS011;10340;53.664;9.908;2022-11-20T06:04:22;5.13;;;3.87;;
20363;SDS011;10340;53.664;9.908;2022-11-20T06:06:50;3.97;;;3.57;;
20363;SDS011;10340;53.664;9.908;2022-11-20T06:09:17;4.10;;;3.70;;
20363;SDS011;10340;53.664;9.908;2022-11-20T06:11:44;4.50;;;4.10;;
20363;SDS011;10340;53.664;9.908;2022-11-20T06:14:11;4.77;;;4.37;;
20363;SDS011;10340;53.664;9.908;2022-11-20T06:16:38;5.00;;;4.03;;
20363;SDS011;10340;53.664;9.908;2022-11-20T06:19:05;6.47;;;4.60;;
20363;SDS011;10340;53.664;9.908;2022-11-20T06:21:32;6.27;;;4.50;;
20363;SDS011;10340;53.664;9.908;2022-11-20T06:24:00;4.47;;;4.07;;
20363;SDS011;10340;53.664;9.908;2022-11-20T06:26:27;4.60;;;4.20;;
20363;SDS011;10340;53.664;9.908;2022-11-20T06:28:54;4.83;;;4.03;;
20363;SDS011;10340;53.664;9.908;2022-11-20T06:31:22;6.03;;;4.30;;
20363;SDS011;10340;53.664;9.908;2022-11-20T06:33:50;4.47;;;4.07;;
20363;SDS011;10340;53.664;9.908;2022-11-20T06:36:18;4.43;;;4.00;;
20363;SDS011;10340;53.664;9.908;2022-11-20T06:38:47;4.87;;;4.47;;
20363;SDS011;10340;53.664;9.908;2022-11-20T06:41:16;4.30;;;3.90;;
20363;SDS011;10340;53.664;9.908;2022-11-20T06:43:44;5.10;;;4.70;;
20363;SDS011;10340;53.664;9.908;2022-11-20T06:46:12;5.43;;;4.93;;
20363;SDS011;10340;53.664;9.908;2022-11-20T06:48:42;6.00;;;4.80;;
20363;SDS011;10340;53.664;9.908;2022-11-20T06:51:09;5.30;;;4.80;;
20363;SDS011;10340;53.664;9.908;2022-11-20T06:53:36;5.07;;;4.57;;
20363;SDS011;10340;53.664;9.908;2022-11-20T06:56:03;4.97;;;4.43;;
20363;SDS011;10340;53.664;9.908;2022-11-20T06:58:33;4.47;;;4.07;;
20363;SDS011;10340;53.664;9.908;2022-11-20T07:01:02;4.70;;;4.30;;
20363;SDS011;10340;53.664;9.908;2022-11-20T07:03:30;4.93;;;4.50;;
20363;SDS011;10340;53.664;9.908;2022-11-20T07:05:57;5.23;;;4.83;;
20363;SDS011;10340;53.664;9.908;2022-11-20T07:08:26;4.47;;;4.07;;
20363;SDS011;10340;53.664;9.908;2022-11-20T07:10:56;5.53;;;4.63;;
20363;SDS011;10340;53.664;9.908;2022-11-20T07:13:24;5.53;;;5.03;;
20363;SDS011;10340;53.664;9.908;2022-11-20T07:15:53;5.27;;;4.73;;
20363;SDS011;10340;53.664;9.908;2022-11-20T07:18:20;4.97;;;4.47;;
20363;SDS011;10340;53.664;9.908;2022-11-20T07:20:47;4.77;;;4.33;;
20363;SDS011;10340;53.664;9.908;2022-11-20T07:23:14;4.83;;;4.43;;
20363;SDS011;10340;53.664;9.908;2022-11-20T07:25:40;4.30;;;3.90;;
20363;SDS011;10340;53.664;9.908;2022-11-20T07:28:07;5.87;;;4.83;;
20363;SDS011;10340;53.664;9.908;2022-11-20T07:30:35;5.57;;;4.97;;
20363;SDS011;10340;53.664;9.908;2022-11-20T07:33:04;5.87;;;4.87;;
20363;SDS011;10340;53.664;9.908;2022-11-20T07:35:31;5.50;;;5.00;;
20363;SDS011;10340;53.664;9.908;2022-11-20T07:37:58;5.20;;;4.23;;
20363;SDS011;10340;53.664;9.908;2022-11-20T07:40:25;6.87;;;4.83;;
20363;SDS011;10340;53.664;9.908;2022-11-20T07:42:53;4.67;;;4.27;;
20363;SDS011;10340;53.664;9.908;2022-11-20T07:45:21;4.70;;;4.30;;
20363;SDS011;10340;53.664;9.908;2022-11-20T07:47:50;5.67;;;4.77;;
20363;SDS011;10340;53.664;9.908;2022-11-20T07:50:18;5.33;;;4.53;;
20363;SDS011;10340;53.664;9.908;2022-11-20T07:52:46;5.33;;;4.67;;
20363;SDS011;10340;53.664;9.908;2022-11-20T07:55:13;5.30;;;4.53;;
20363;SDS011;10340;53.664;9.908;2022-11-20T07:57:41;5.47;;;4.90;;
20363;SDS011;10340;53.664;9.908;2022-11-20T08:00:09;5.50;;;4.83;;
20363;SDS011;10340;53.664;9.908;2022-11-20T08:02:37;5.87;;;4.93;;
20363;SDS011;10340;53.664;9.908;2022-11-20T08:05:05;5.53;;;5.03;;
20363;SDS011;10340;53.664;9.908;2022-11-20T08:07:38;6.67;;;5.23;;
20363;SDS011;10340;53.664;9.908;2022-11-20T08:10:06;5.87;;;5.20;;
20363;SDS011;10340;53.664;9.908;2022-11-20T08:12:33;5.73;;;5.10;;
20363;SDS011;10340;53.664;9.908;2022-11-20T08:15:18;6.00;;;5.40;;
20363;SDS011;10340;53.664;9.908;2022-11-20T08:17:45;5.77;;;5.10;;
20363;SDS011;10340;53.664;9.908;2022-11-20T08:20:12;6.63;;;6.03;;
20363;SDS011;10340;53.664;9.908;2022-11-20T08:22:41;6.20;;;5.20;;
20363;SDS011;10340;53.664;9.908;2022-11-20T08:25:08;6.83;;;5.47;;
20363;SDS011;10340;53.664;9.908;2022-11-20T08:27:35;7.27;;;5.77;;
20363;SDS011;10340;53.664;9.908;2022-11-20T08:30:02;9.00;;;7.10;;
20363;SDS011;10340;53.664;9.908;2022-11-20T08:32:29;6.87;;;5.40;;
20363;SDS011;10340;53.664;9.908;2022-11-20T08:34:56;6.83;;;5.60;;
20363;SDS011;10340;53.664;9.908;2022-11-20T08:37:23;5.30;;;4.80;;
20363;SDS011;10340;53.664;9.908;2022-11-20T08:39:51;5.27;;;4.77;;
20363;SDS011;10340;53.664;9.908;2022-11-20T08:42:21;5.33;;;4.83;;
20363;SDS011;10340;53.664;9.908;2022-11-20T08:44:48;5.23;;;4.67;;
20363;SDS011;10340;53.664;9.908;2022-11-20T08:47:15;5.97;;;5.37;;
20363;SDS011;10340;53.664;9.908;2022-11-20T08:49:42;5.27;;;4.77;;
20363;SDS011;10340;53.664;9.908;2022-11-20T08:52:09;4.70;;;4.23;;
20363;SDS011;10340;53.664;9.908;2022-11-20T08:54:36;4.90;;;4.40;;
20363;SDS011;10340;53.664;9.908;2022-11-20T08:57:05;6.73;;;5.10;;
20363;SDS011;10340;53.664;9.908;2022-11-20T08:59:32;6.17;;;4.90;;
20363;SDS011;10340;53.664;9.908;2022-11-20T09:01:59;6.27;;;4.30;;
20363;SDS011;10340;53.664;9.908;2022-11-20T09:04:26;6.17;;;4.83;;
20363;SDS011;10340;53.664;9.908;2022-11-20T09:06:53;6.43;;;4.90;;
20363;SDS011;10340;53.664;9.908;2022-11-20T09:09:19;5.80;;;5.20;;
20363;SDS011;10340;53.664;9.908;2022-11-20T09:11:46;5.80;;;4.77;;
20363;SDS011;10340;53.664;9.908;2022-11-20T09:14:18;6.30;;;5.03;;
20363;SDS011;10340;53.664;9.908;2022-11-20T09:16:46;5.60;;;4.70;;
20363;SDS011;10340;53.664;9.908;2022-11-20T09:19:13;5.00;;;4.50;;
20363;SDS011;10340;53.664;9.908;2022-11-20T09:21:40;6.40;;;5.80;;
20363;SDS011;10340;53.664;9.908;2022-11-20T09:24:07;6.17;;;5.57;;
20363;SDS011;10340;53.664;9.908;2022-11-20T09:26:34;5.60;;;4.80;;
20363;SDS011;10340;53.664;9.908;2022-11-20T09:29:01;4.87;;;4.40;;
20363;SDS011;10340;53.664;9.908;2022-11-20T09:31:29;7.10;;;4.77;;
20363;SDS011;10340;53.664;9.908;2022-11-20T09:33:57;6.40;;;5.73;;
20363;SDS011;10340;53.664;9.908;2022-11-20T09:36:24;6.27;;;5.30;;
20363;SDS011;10340;53.664;9.908;2022-11-20T09:38:51;4.97;;;4.43;;
20363;SDS011;10340;53.664;9.908;2022-11-20T09:41:28;4.80;;;4.40;;
20363;SDS011;10340;53.664;9.908;2022-11-20T09:44:17;5.90;;;5.00;;
20363;SDS011;10340;53.664;9.908;2022-11-20T09:46:58;5.80;;;4.47;;
20363;SDS011;10340;53.664;9.908;2022-11-20T09:49:31;5.10;;;4.20;;
20363;SDS011;10340;53.664;9.908;2022-11-20T09:52:20;5.10;;;4.67;;
20363;SDS011;10340;53.664;9.908;2022-11-20T09:54:56;4.37;;;3.97;;
20363;SDS011;10340;53.664;9.908;2022-11-20T09:57:25;4.93;;;4.00;;
20363;SDS011;10340;53.664;9.908;2022-11-20T10:00:00;4.77;;;4.20;;
20363;SDS011;10340;53.664;9.908;2022-11-20T10:02:34;5.80;;;5.13;;
20363;SDS011;10340;53.664;9.908;2022-11-20T10:05:06;5.87;;;4.27;;
20363;SDS011;10340;53.664;9.908;2022-11-20T10:07:39;5.33;;;4.83;;
20363;SDS011;10340;53.664;9.908;2022-11-20T10:10:14;4.93;;;4.43;;
20363;SDS011;10340;53.664;9.908;2022-11-20T10:12:46;6.40;;;4.77;;
20363;SDS011;10340;53.664;9.908;2022-11-20T10:15:26;5.40;;;4.90;;
20363;SDS011;10340;53.664;9.908;2022-11-20T10:18:08;4.77;;;4.27;;
20363;SDS011;10340;53.664;9.908;2022-11-20T10:20:43;4.47;;;4.07;;
20363;SDS011;10340;53.664;9.908;2022-11-20T10:23:23;4.10;;;3.73;;
20363;SDS011;10340;53.664;9.908;2022-11-20T10:25:59;5.27;;;4.80;;
20363;SDS011;10340;53.664;9.908;2022-11-20T10:28:30;4.50;;;4.10;;
20363;SDS011;10340;53.664;9.908;2022-11-20T10:31:13;4.43;;;4.03;;
20363;SDS011;10340;53.664;9.908;2022-11-20T10:33:56;4.70;;;3.97;;
20363;SDS011;10340;53.664;9.908;2022-11-20T10:36:27;4.70;;;4.30;;
20363;SDS011;10340;53.664;9.908;2022-11-20T10:39:00;4.93;;;3.80;;
20363;SDS011;10340;53.664;9.908;2022-11-20T10:41:32;4.87;;;4.37;;
20363;SDS011;10340;53.664;9.908;2022-11-20T10:44:03;5.03;;;4.53;;
20363;SDS011;10340;53.664;9.908;2022-11-20T10:49:48;5.67;;;4.13;;
20363;SDS011;10340;53.664;9.908;2022-11-20T10:52:19;4.17;;;3.77;;
20363;SDS011;10340;53.664;9.908;2022-11-20T10:54:57;6.47;;;3.90;;
20363;SDS011;10340;53.664;9.908;2022-11-20T10:57:36;4.17;;;3.87;;
20363;SDS011;10340;53.664;9.908;2022-11-20T11:00:14;6.07;;;4.30;;
20363;SDS011;10340;53.664;9.908;2022-11-20T11:02:43;4.47;;;4.07;;
20363;SDS011;10340;53.664;9.908;2022-11-20T11:05:17;4.40;;;4.00;;
20363;SDS011;10340;53.664;9.908;2022-11-20T11:07:50;4.23;;;3.83;;
20363;SDS011;10340;53.664;9.908;2022-11-20T11:10:21;3.23;;;2.80;;
20363;SDS011;10340;53.664;9.908;2022-11-20T11:12:52;4.47;;;3.13;;
20363;SDS011;10340;53.664;9.908;2022-11-20T11:15:26;4.00;;;3.60;;
20363;SDS011;10340;53.664;9.908;2022-11-20T11:17:55;4.57;;;3.40;;
20363;SDS011;10340;53.664;9.908;2022-11-20T11:20:25;4.10;;;3.70;;
20363;SDS011;10340;53.664;9.908;2022-11-20T11:22:53;3.70;;;3.40;;
20363;SDS011;10340;53.664;9.908;2022-11-20T11:25:23;3.80;;;3.50;;
20363;SDS011;10340;53.664;9.908;2022-11-20T11:27:52;3.90;;;3.53;;
20363;SDS011;10340;53.664;9.908;2022-11-20T11:30:22;3.60;;;3.30;;
20363;SDS011;10340;53.664;9.908;2022-11-20T11:32:50;3.70;;;3.40;;
20363;SDS011;10340;53.664;9.908;2022-11-20T11:35:29;4.10;;;3.13;;
20363;SDS011;10340;53.664;9.908;2022-11-20T11:38:02;3.50;;;3.10;;
20363;SDS011;10340;53.664;9.908;2022-11-20T11:40:32;3.43;;;3.13;;
20363;SDS011;10340;53.664;9.908;2022-11-20T11:43:01;3.60;;;3.07;;
20363;SDS011;10340;53.664;9.908;2022-11-20T11:45:52;3.40;;;3.10;;
20363;SDS011;10340;53.664;9.908;2022-11-20T11:48:19;3.00;;;2.70;;
20363;SDS011;10340;53.664;9.908;2022-11-20T11:50:49;2.80;;;2.60;;
20363;SDS011;10340;53.664;9.908;2022-11-20T11:53:17;2.90;;;2.70;;
20363;SDS011;10340;53.664;9.908;2022-11-20T11:55:46;4.70;;;3.60;;
20363;SDS011;10340;53.664;9.908;2022-11-20T11:58:22;5.23;;;4.73;;
20363;SDS011;10340;53.664;9.908;2022-11-20T12:01:10;4.80;;;4.37;;
20363;SDS011;10340;53.664;9.908;2022-11-20T12:03:49;3.70;;;3.40;;
20363;SDS011;10340;53.664;9.908;2022-11-20T12:06:23;3.40;;;3.10;;
20363;SDS011;10340;53.664;9.908;2022-11-20T12:08:55;3.13;;;2.93;;
20363;SDS011;10340;53.664;9.908;2022-11-20T12:11:29;3.70;;;3.07;;
20363;SDS011;10340;53.664;9.908;2022-11-20T12:14:02;2.87;;;2.67;;
20363;SDS011;10340;53.664;9.908;2022-11-20T12:16:36;3.47;;;2.67;;
20363;SDS011;10340;53.664;9.908;2022-11-20T12:19:06;2.60;;;2.40;;
20363;SDS011;10340;53.664;9.908;2022-11-20T12:21:39;3.10;;;2.80;;
20363;SDS011;10340;53.664;9.908;2022-11-20T12:24:23;2.93;;;2.50;;
20363;SDS011;10340;53.664;9.908;2022-11-20T12:27:03;3.07;;;2.87;;
20363;SDS011;10340;53.664;9.908;2022-11-20T12:29:43;2.43;;;2.23;;
20363;SDS011;10340;53.664;9.908;2022-11-20T12:32:25;4.47;;;3.30;;
20363;SDS011;10340;53.664;9.908;2022-11-20T12:35:24;2.67;;;2.47;;
20363;SDS011;10340;53.664;9.908;2022-11-20T12:38:26;2.90;;;2.67;;
20363;SDS011;10340;53.664;9.908;2022-11-20T12:41:13;3.40;;;3.10;;
20363;SDS011;10340;53.664;9.908;2022-11-20T12:44:05;3.10;;;2.87;;
20363;SDS011;10340;53.664;9.908;2022-11-20T12:47:08;3.10;;;2.80;;
20363;SDS011;10340;53.664;9.908;2022-11-20T12:49:44;2.63;;;2.43;;
20363;SDS011;10340;53.664;9.908;2022-11-20T12:52:32;3.20;;;2.90;;
20363;SDS011;10340;53.664;9.908;2022-11-20T12:55:13;3.10;;;2.90;;
20363;SDS011;10340;53.664;9.908;2022-11-20T12:57:53;3.70;;;3.33;;
20363;SDS011;10340;53.664;9.908;2022-11-20T13:00:24;3.40;;;3.10;;
20363;SDS011;10340;53.664;9.908;2022-11-20T13:05:52;3.63;;;3.07;;
20363;SDS011;10340;53.664;9.908;2022-11-20T13:08:25;3.87;;;3.50;;
20363;SDS011;10340;53.664;9.908;2022-11-20T13:10:58;4.17;;;3.10;;
20363;SDS011;10340;53.664;9.908;2022-11-20T13:13:30;3.93;;;3.53;;
20363;SDS011;10340;53.664;9.908;2022-11-20T13:16:04;4.63;;;3.70;;
20363;SDS011;10340;53.664;9.908;2022-11-20T13:18:36;3.70;;;3.40;;
20363;SDS011;10340;53.664;9.908;2022-11-20T13:21:14;3.63;;;3.33;;
20363;SDS011;10340;53.664;9.908;2022-11-20T13:23:42;3.83;;;3.10;;
20363;SDS011;10340;53.664;9.908;2022-11-20T13:26:18;3.73;;;3.20;;
20363;SDS011;10340;53.664;9.908;2022-11-20T13:28:47;3.40;;;3.10;;
20363;SDS011;10340;53.664;9.908;2022-11-20T13:31:28;2.60;;;2.43;;
20363;SDS011;10340;53.664;9.908;2022-11-20T13:33:58;2.80;;;2.53;;
20363;SDS011;10340;53.664;9.908;2022-11-20T13:36:28;2.90;;;2.57;;
20363;SDS011;10340;53.664;9.908;2022-11-20T13:38:57;2.73;;;2.33;;
20363;SDS011;10340;53.664;9.908;2022-11-20T13:41:27;2.50;;;2.30;;
20363;SDS011;10340;53.664;9.908;2022-11-20T13:43:57;2.77;;;2.57;;
20363;SDS011;10340;53.664;9.908;2022-11-20T13:46:34;2.63;;;2.40;;
20363;SDS011;10340;53.664;9.908;2022-11-20T13:49:09;3.57;;;2.50;;
20363;SDS011;10340;53.664;9.908;2022-11-20T13:51:48;3.73;;;2.50;;
20363;SDS011;10340;53.664;9.908;2022-11-20T13:54:28;2.50;;;2.30;;
20363;SDS011;10340;53.664;9.908;2022-11-20T13:57:22;2.63;;;2.43;;
20363;SDS011;10340;53.664;9.908;2022-11-20T14:00:03;2.70;;;2.50;;
20363;SDS011;10340;53.664;9.908;2022-11-20T14:02:36;2.80;;;2.60;;
20363;SDS011;10340;53.664;9.908;2022-11-20T14:05:03;3.33;;;2.70;;
20363;SDS011;10340;53.664;9.908;2022-11-20T14:07:32;2.83;;;2.60;;
20363;SDS011;10340;53.664;9.908;2022-11-20T14:10:02;3.90;;;3.37;;
20363;SDS011;10340;53.664;9.908;2022-11-20T14:12:31;3.20;;;2.97;;
20363;SDS011;10340;53.664;9.908;2022-11-20T14:14:59;3.00;;;2.80;;
20363;SDS011;10340;53.664;9.908;2022-11-20T14:17:30;3.63;;;3.00;;
20363;SDS011;10340;53.664;9.908;2022-11-20T14:19:58;4.20;;;2.93;;
20363;SDS011;10340;53.664;9.908;2022-11-20T14:22:29;4.07;;;2.80;;
20363;SDS011;10340;53.664;9.908;2022-11-20T14:25:03;3.20;;;2.77;;
20363;SDS011;10340;53.664;9.908;2022-11-20T14:27:34;3.57;;;2.90;;
20363;SDS011;10340;53.664;9.908;2022-11-20T14:30:04;3.30;;;2.83;;
20363;SDS011;10340;53.664;9.908;2022-11-20T14:32:32;3.40;;;3.07;;
20363;SDS011;10340;53.664;9.908;2022-11-20T14:35:06;3.20;;;2.90;;
20363;SDS011;10340;53.664;9.908;2022-11-20T14:37:36;3.50;;;3.20;;
20363;SDS011;10340;53.664;9.908;2022-11-20T14:40:20;6.27;;;4.43;;
20363;SDS011;10340;53.664;9.908;2022-11-20T14:42:51;5.20;;;4.10;;
20363;SDS011;10340;53.664;9.908;2022-11-20T14:45:18;5.50;;;4.03;;
20363;SDS011;10340;53.664;9.908;2022-11-20T14:47:46;7.23;;;4.83;;
20363;SDS011;10340;53.664;9.908;2022-11-20T14:50:16;8.07;;;5.90;;
20363;SDS011;10340;53.664;9.908;2022-11-20T14:52:50;7.37;;;5.33;;
20363;SDS011;10340;53.664;9.908;2022-11-20T14:55:28;11.93;;;9.20;;
20363;SDS011;10340;53.664;9.908;2022-11-20T14:57:59;6.07;;;5.23;;
20363;SDS011;10340;53.664;9.908;2022-11-20T15:00:27;6.20;;;5.50;;
20363;SDS011;10340;53.664;9.908;2022-11-20T15:02:55;10.40;;;7.60;;
20363;SDS011;10340;53.664;9.908;2022-11-20T15:05:23;5.70;;;5.17;;
20363;SDS011;10340;53.664;9.908;2022-11-20T15:08:03;4.20;;;3.80;;
20363;SDS011;10340;53.664;9.908;2022-11-20T15:10:32;3.53;;;3.07;;
20363;SDS011;10340;53.664;9.908;2022-11-20T15:13:01;3.90;;;3.40;;
20363;SDS011;10340;53.664;9.908;2022-11-20T15:15:32;3.73;;;3.43;;